Map

Track Data

SID SEASON NUMBER BASIN SUBBASIN NAME ISO_TIME NATURE LAT LON WMO_WIND WMO_PRES WMO_AGENCY TRACK_TYPE DIST2LAND LANDFALL IFLAG USA_AGENCY USA_ATCF_ID USA_LAT USA_LON USA_RECORD USA_STATUS USA_WIND USA_PRES USA_SSHS USA_R34_NE USA_R34_SE USA_R34_SW USA_R34_NW USA_R50_NE USA_R50_SE USA_R50_SW USA_R50_NW USA_R64_NE USA_R64_SE USA_R64_SW USA_R64_NW USA_POCI USA_ROCI USA_RMW USA_EYE TOKYO_LAT TOKYO_LON TOKYO_GRADE TOKYO_WIND TOKYO_PRES TOKYO_R50_DIR TOKYO_R50_LONG TOKYO_R50_SHORT TOKYO_R30_DIR TOKYO_R30_LONG TOKYO_R30_SHORT TOKYO_LAND CMA_LAT CMA_LON CMA_CAT CMA_WIND CMA_PRES HKO_LAT HKO_LON HKO_CAT HKO_WIND HKO_PRES NEWDELHI_LAT NEWDELHI_LON NEWDELHI_GRADE NEWDELHI_WIND NEWDELHI_PRES NEWDELHI_CI NEWDELHI_DP NEWDELHI_POCI REUNION_LAT REUNION_LON REUNION_TYPE REUNION_WIND REUNION_PRES REUNION_TNUM REUNION_CI REUNION_RMW REUNION_R34_NE REUNION_R34_SE REUNION_R34_SW REUNION_R34_NW REUNION_R50_NE REUNION_R50_SE REUNION_R50_SW REUNION_R50_NW REUNION_R64_NE REUNION_R64_SE REUNION_R64_SW REUNION_R64_NW BOM_LAT BOM_LON BOM_TYPE BOM_WIND BOM_PRES BOM_TNUM BOM_CI BOM_RMW BOM_R34_NE BOM_R34_SE BOM_R34_SW BOM_R34_NW BOM_R50_NE BOM_R50_SE BOM_R50_SW BOM_R50_NW BOM_R64_NE BOM_R64_SE BOM_R64_SW BOM_R64_NW BOM_ROCI BOM_POCI BOM_EYE BOM_POS_METHOD BOM_PRES_METHOD NADI_LAT NADI_LON NADI_CAT NADI_WIND NADI_PRES WELLINGTON_LAT WELLINGTON_LON WELLINGTON_WIND WELLINGTON_PRES DS824_LAT DS824_LON DS824_STAGE DS824_WIND DS824_PRES TD9636_LAT TD9636_LON TD9636_STAGE TD9636_WIND TD9636_PRES TD9635_LAT TD9635_LON TD9635_WIND TD9635_PRES TD9635_ROCI NEUMANN_LAT NEUMANN_LON NEUMANN_CLASS NEUMANN_WIND NEUMANN_PRES MLC_LAT MLC_LON MLC_CLASS MLC_WIND MLC_PRES USA_GUST BOM_GUST BOM_GUST_PER REUNION_GUST REUNION_GUST_PER USA_SEAHGT USA_SEARAD_NE USA_SEARAD_SE USA_SEARAD_SW USA_SEARAD_NW STORM_SPEED STORM_DIR
1884135N11090 1884 12 NI BB NOT_NAMED 1884-05-14 00:00:00 TS 11.2000 89.6000 main 731 723 _________O____ -1 11.2000 89.6000 TC 64 3 0
1884135N11090 1884 12 NI BB NOT_NAMED 1884-05-14 03:00:00 TS 11.3267 89.6000 main 723 707 _________PO___ -1 11.3900 89.6000 TC 64 11.2000 89.6000 4 3 0
1884135N11090 1884 12 NI BB NOT_NAMED 1884-05-14 06:00:00 TS 11.5294 89.5981 main 707 691 _________OP___ -1 11.6000 89.6000 TC 64 11.4234 89.5953 4 4 0
1884135N11090 1884 12 NI BB NOT_NAMED 1884-05-14 09:00:00 TS 11.7589 89.5968 main 683 668 _________PP___ -1 11.8425 89.6000 TC 64 11.6475 89.5925 4 5 0
1884135N11090 1884 12 NI BB NOT_NAMED 1884-05-14 12:00:00 TS 11.9864 89.5967 main 668 653 _________OP___ -1 12.1000 89.6000 TC 64 11.8728 89.5934 4 5 358
1884135N11090 1884 12 NI BB NOT_NAMED 1884-05-14 15:00:00 TS 12.2250 89.5963 main 653 632 _________PO___ -1 12.3500 89.5925 TC 64 12.1000 89.6000 4 5 3
1884135N11090 1884 12 NI BB NOT_NAMED 1884-05-14 18:00:00 TS 12.4653 89.6069 main 632 618 _________OP___ -1 12.6000 89.6000 TC 64 12.3306 89.6138 4 5 5
1884135N11090 1884 12 NI BB NOT_NAMED 1884-05-14 21:00:00 TS 12.7025 89.6388 main 618 596 _________PP___ -1 12.8350 89.6425 TC 64 12.5700 89.6350 4 5 8
1884135N11090 1884 12 NI BB NOT_NAMED 1884-05-15 00:00:00 TS 12.9622 89.6819 main 589 570 _________OP___ -1 13.1000 89.7000 TC 64 12.8244 89.6638 4 6 9
1884135N11090 1884 12 NI BB NOT_NAMED 1884-05-15 03:00:00 TS 13.2713 89.7250 main 570 544 _________PO___ -1 13.4425 89.7500 TC 64 13.1000 89.7000 4 7 7
1884135N11090 1884 12 NI BB NOT_NAMED 1884-05-15 06:00:00 TS 13.6037 89.7674 main 544 528 _________OP___ -1 13.8000 89.8000 TC 64 13.4075 89.7347 4 7 7
1884135N11090 1884 12 NI BB NOT_NAMED 1884-05-15 09:00:00 TS 13.9212 89.8101 main 528 503 _________PP___ -1 14.1075 89.8426 TC 64 13.7350 89.7776 4 6 9
1884135N11090 1884 12 NI BB NOT_NAMED 1884-05-15 12:00:00 TS 14.2350 89.8658 main 503 491 _________OP___ -1 14.4000 89.9000 TC 64 14.0700 89.8316 4 6 12
1884135N11090 1884 12 NI BB NOT_NAMED 1884-05-15 15:00:00 TS 14.5500 89.9463 main 487 470 _________PO___ -1 14.7000 89.9925 TC 64 14.4000 89.9000 4 6 16
1884135N11090 1884 12 NI BB NOT_NAMED 1884-05-15 18:00:00 TS 14.8414 90.0388 main 470 450 _________OP___ -1 15.0000 90.1000 TC 64 14.6828 89.9777 4 6 17
1884135N11090 1884 12 NI BB NOT_NAMED 1884-05-15 21:00:00 TS 15.1200 90.1315 main 450 433 _________PP___ -1 15.2775 90.1926 TC 64 14.9625 90.0703 4 6 18
1884135N11090 1884 12 NI BB NOT_NAMED 1884-05-16 00:00:00 TS 15.4305 90.2389 main 433 407 _________OP___ -1 15.6000 90.3000 TC 64 15.2609 90.1778 4 7 18
1884135N11090 1884 12 NI BB NOT_NAMED 1884-05-16 03:00:00 TS 15.8138 90.3712 main 407 395 _________PO___ -1 16.0275 90.4425 TC 64 15.6000 90.3000 4 9 18
1884135N11090 1884 12 NI BB NOT_NAMED 1884-05-16 06:00:00 TS 16.2595 90.5138 main 396 381 _________OP___ -1 16.5000 90.6000 TC 64 16.0190 90.4275 4 10 17
1884135N11090 1884 12 NI BB NOT_NAMED 1884-05-16 09:00:00 TS 16.7175 90.6600 main 381 373 _________PP___ -1 16.9575 90.7501 TC 64 16.4775 90.5700 4 10 18
1884135N11090 1884 12 NI BB NOT_NAMED 1884-05-16 12:00:00 TS 17.1736 90.8138 main 366 325 _________OP___ -1 17.4000 90.9000 TC 64 16.9472 90.7276 4 9 18
1884135N11090 1884 12 NI BB NOT_NAMED 1884-05-16 15:00:00 TS 17.6075 90.9676 main 325 296 _________PO___ -1 17.8149 91.0352 TC 64 17.4000 90.9000 4 9 21
1884135N11090 1884 12 NI BB NOT_NAMED 1884-05-16 18:00:00 TS 17.9797 91.1352 main 296 262 _________OP___ -1 18.2000 91.2000 TC 64 17.8144 91.0866 4 8 26
1884135N11090 1884 12 NI BB NOT_NAMED 1884-05-16 21:00:00 TS 18.3401 91.3426 main 262 214 _________PP___ -1 18.5576 91.4297 TC 64 18.1952 91.2844 4 8 30
1884135N11090 1884 12 NI BB NOT_NAMED 1884-05-17 00:00:00 TS 18.6689 91.5601 main 207 183 _________OP___ -1 18.9000 91.7000 TC 64 18.5533 91.4901 4 7 31
1884135N11090 1884 12 NI BB NOT_NAMED 1884-05-17 03:00:00 NR 18.9000 91.7000 main 183 __________O___ -1 TC 18.9000 91.7000 4 5 29

About IBTrACS Database

This database is a web-friendly format of International Best Track Archive for Climate Stewardship (IBTrACS), a global best track data archive curated by NOAA dating back to 1842.

Updated: 2021-12-03